sensor_id;sensor_type;location;lat;lon;timestamp;pressure;altitude;pressure_sealevel;temperature;humidity
30935;BME280;51033;42.648;23.292;2022-09-20T00:01:28;93949.59;;;10.00;49.68
30935;BME280;51033;42.648;23.292;2022-09-20T00:03:57;93950.81;;;9.94;49.23
30935;BME280;51033;42.648;23.292;2022-09-20T00:06:30;93942.63;;;9.60;50.09
30935;BME280;51033;42.648;23.292;2022-09-20T00:08:56;93934.34;;;9.53;50.22
30935;BME280;51033;42.648;23.292;2022-09-20T00:11:24;93939.03;;;9.56;50.00
30935;BME280;51033;42.648;23.292;2022-09-20T00:13:53;93923.81;;;9.25;50.24
30935;BME280;51033;42.648;23.292;2022-09-20T00:16:22;93947.22;;;9.45;50.32
30935;BME280;51033;42.648;23.292;2022-09-20T00:18:52;93950.75;;;9.32;50.61
30935;BME280;51033;42.648;23.292;2022-09-20T00:21:20;93897.63;;;9.10;50.68
30935;BME280;51033;42.648;23.292;2022-09-20T00:23:46;93930.97;;;9.38;50.72
30935;BME280;51033;42.648;23.292;2022-09-20T00:26:11;93909.47;;;9.26;50.47
30935;BME280;51033;42.648;23.292;2022-09-20T00:28:38;93883.66;;;9.18;50.56
30935;BME280;51033;42.648;23.292;2022-09-20T00:31:04;93920.31;;;9.61;50.57
30935;BME280;51033;42.648;23.292;2022-09-20T00:33:30;93944.63;;;9.76;50.32
30935;BME280;51033;42.648;23.292;2022-09-20T00:36:14;93943.88;;;9.84;50.06
30935;BME280;51033;42.648;23.292;2022-09-20T00:38:40;93940.78;;;9.91;50.00
30935;BME280;51033;42.648;23.292;2022-09-20T00:41:06;93941.13;;;9.67;50.15
30935;BME280;51033;42.648;23.292;2022-09-20T00:43:58;93949.22;;;9.93;49.66
30935;BME280;51033;42.648;23.292;2022-09-20T00:46:37;93954.97;;;10.17;49.54
30935;BME280;51033;42.648;23.292;2022-09-20T00:49:14;93953.84;;;10.10;48.83
30935;BME280;51033;42.648;23.292;2022-09-20T00:51:44;93959.53;;;9.86;49.26
30935;BME280;51033;42.648;23.292;2022-09-20T00:54:14;93945.31;;;9.91;48.98
30935;BME280;51033;42.648;23.292;2022-09-20T00:56:40;93961.34;;;9.77;49.14
30935;BME280;51033;42.648;23.292;2022-09-20T00:59:30;93971.59;;;9.70;49.14
30935;BME280;51033;42.648;23.292;2022-09-20T01:02:02;93961.78;;;9.48;50.04
30935;BME280;51033;42.648;23.292;2022-09-20T01:04:31;93949.09;;;9.67;49.63
30935;BME280;51033;42.648;23.292;2022-09-20T01:07:02;93936.94;;;9.75;49.22
30935;BME280;51033;42.648;23.292;2022-09-20T01:09:28;93943.47;;;9.69;49.25
30935;BME280;51033;42.648;23.292;2022-09-20T01:11:55;93961.59;;;9.67;49.09
30935;BME280;51033;42.648;23.292;2022-09-20T01:14:22;93942.09;;;9.71;48.71
30935;BME280;51033;42.648;23.292;2022-09-20T01:16:50;93931.81;;;9.78;48.49
30935;BME280;51033;42.648;23.292;2022-09-20T01:19:27;93928.53;;;9.73;48.27
30935;BME280;51033;42.648;23.292;2022-09-20T01:21:58;93940.56;;;9.79;47.76
30935;BME280;51033;42.648;23.292;2022-09-20T01:24:40;93907.28;;;9.51;47.71
30935;BME280;51033;42.648;23.292;2022-09-20T01:27:23;93929.84;;;9.62;47.82
30935;BME280;51033;42.648;23.292;2022-09-20T01:30:08;93914.25;;;9.69;47.34
30935;BME280;51033;42.648;23.292;2022-09-20T01:32:49;93939.72;;;9.92;47.11
30935;BME280;51033;42.648;23.292;2022-09-20T01:35:19;93922.13;;;9.52;47.30
30935;BME280;51033;42.648;23.292;2022-09-20T01:40:29;93945.88;;;9.79;47.47
30935;BME280;51033;42.648;23.292;2022-09-20T01:43:29;93946.44;;;9.98;46.97
30935;BME280;51033;42.648;23.292;2022-09-20T01:46:01;93941.31;;;10.02;46.88
30935;BME280;51033;42.648;23.292;2022-09-20T01:48:38;93916.06;;;9.82;47.05
30935;BME280;51033;42.648;23.292;2022-09-20T01:51:19;93953.94;;;9.96;46.74
30935;BME280;51033;42.648;23.292;2022-09-20T02:10:30;93909.28;;;9.67;47.37
30935;BME280;51033;42.648;23.292;2022-09-20T02:24:37;93909.06;;;9.33;48.10
30935;BME280;51033;42.648;23.292;2022-09-20T02:39:47;93922.13;;;9.52;49.41
30935;BME280;51033;42.648;23.292;2022-09-20T02:42:24;93912.78;;;9.54;48.85
30935;BME280;51033;42.648;23.292;2022-09-20T02:47:31;93931.22;;;9.59;48.75
30935;BME280;51033;42.648;23.292;2022-09-20T02:50:27;93934.53;;;9.65;48.88
30935;BME280;51033;42.648;23.292;2022-09-20T02:55:54;93933.47;;;9.66;49.22
30935;BME280;51033;42.648;23.292;2022-09-20T02:58:46;93941.38;;;9.88;48.93
30935;BME280;51033;42.648;23.292;2022-09-20T03:04:17;93922.88;;;9.43;49.46
30935;BME280;51033;42.648;23.292;2022-09-20T03:06:55;93946.00;;;9.29;49.93
30935;BME280;51033;42.648;23.292;2022-09-20T03:09:39;93930.53;;;9.23;49.82
30935;BME280;51033;42.648;23.292;2022-09-20T03:12:26;93944.25;;;9.25;50.27
30935;BME280;51033;42.648;23.292;2022-09-20T03:23:13;93952.44;;;8.79;50.43
30935;BME280;51033;42.648;23.292;2022-09-20T03:25:56;93913.59;;;8.61;50.88
30935;BME280;51033;42.648;23.292;2022-09-20T03:28:35;93958.66;;;8.61;51.51
30935;BME280;51033;42.648;23.292;2022-09-20T03:31:48;93962.47;;;8.68;51.35
30935;BME280;51033;42.648;23.292;2022-09-20T03:42:27;93916.31;;;8.69;49.90
30935;BME280;51033;42.648;23.292;2022-09-20T04:04:06;93952.13;;;8.94;49.59
30935;BME280;51033;42.648;23.292;2022-09-20T04:06:52;93965.25;;;9.13;49.55
30935;BME280;51033;42.648;23.292;2022-09-20T04:09:54;93974.97;;;9.17;49.44
30935;BME280;51033;42.648;23.292;2022-09-20T04:20:36;93983.09;;;8.85;50.19
30935;BME280;51033;42.648;23.292;2022-09-20T04:26:02;93985.63;;;8.90;50.25
30935;BME280;51033;42.648;23.292;2022-09-20T04:28:34;93995.88;;;9.05;50.89
30935;BME280;51033;42.648;23.292;2022-09-20T04:31:44;93929.16;;;8.76;50.09
30935;BME280;51033;42.648;23.292;2022-09-20T04:34:17;94000.72;;;9.53;49.60
30935;BME280;51033;42.648;23.292;2022-09-20T04:36:56;94006.44;;;9.46;49.56
30935;BME280;51033;42.648;23.292;2022-09-20T04:56:19;93993.94;;;9.47;48.74
30935;BME280;51033;42.648;23.292;2022-09-20T05:07:20;94010.53;;;9.74;48.41
30935;BME280;51033;42.648;23.292;2022-09-20T05:10:25;94012.50;;;9.69;48.59
30935;BME280;51033;42.648;23.292;2022-09-20T05:29:13;94023.16;;;9.91;48.94
30935;BME280;51033;42.648;23.292;2022-09-20T05:31:45;94020.03;;;9.98;48.64
30935;BME280;51033;42.648;23.292;2022-09-20T05:34:32;94026.03;;;10.03;48.38
30935;BME280;51033;42.648;23.292;2022-09-20T05:40:04;93991.84;;;10.10;48.17
30935;BME280;51033;42.648;23.292;2022-09-20T05:42:38;93992.50;;;10.16;47.57
30935;BME280;51033;42.648;23.292;2022-09-20T06:01:22;94027.34;;;10.37;47.65
30935;BME280;51033;42.648;23.292;2022-09-20T06:04:35;94018.41;;;10.10;48.15
30935;BME280;51033;42.648;23.292;2022-09-20T06:07:16;93998.38;;;10.04;48.50
30935;BME280;51033;42.648;23.292;2022-09-20T06:12:52;93954.63;;;9.79;48.39
30935;BME280;51033;42.648;23.292;2022-09-20T06:15:36;94025.50;;;10.46;47.99
30935;BME280;51033;42.648;23.292;2022-09-20T06:23:42;93956.09;;;10.56;46.90
30935;BME280;51033;42.648;23.292;2022-09-20T06:26:13;94011.72;;;11.00;46.90
30935;BME280;51033;42.648;23.292;2022-09-20T06:28:45;94014.09;;;11.10;46.32
30935;BME280;51033;42.648;23.292;2022-09-20T06:31:13;94003.72;;;10.83;46.57
30935;BME280;51033;42.648;23.292;2022-09-20T06:34:21;94002.50;;;10.89;47.10
30935;BME280;51033;42.648;23.292;2022-09-20T06:36:46;93990.56;;;10.78;47.29
30935;BME280;51033;42.648;23.292;2022-09-20T06:39:48;94011.91;;;10.95;47.20
30935;BME280;51033;42.648;23.292;2022-09-20T06:42:33;93993.66;;;10.71;47.82
30935;BME280;51033;42.648;23.292;2022-09-20T06:45:00;93974.59;;;10.78;47.27
30935;BME280;51033;42.648;23.292;2022-09-20T06:47:25;94037.44;;;11.05;47.39
30935;BME280;51033;42.648;23.292;2022-09-20T06:49:51;94019.41;;;11.10;47.45
30935;BME280;51033;42.648;23.292;2022-09-20T06:52:18;94023.84;;;11.24;46.97
30935;BME280;51033;42.648;23.292;2022-09-20T06:54:46;94027.44;;;11.28;46.90
30935;BME280;51033;42.648;23.292;2022-09-20T06:57:18;93995.31;;;11.15;46.86
30935;BME280;51033;42.648;23.292;2022-09-20T06:59:45;94007.72;;;11.29;46.97
30935;BME280;51033;42.648;23.292;2022-09-20T07:02:10;94003.78;;;11.17;47.75
30935;BME280;51033;42.648;23.292;2022-09-20T07:04:36;94019.63;;;11.48;47.40
30935;BME280;51033;42.648;23.292;2022-09-20T07:07:03;94037.50;;;11.48;46.74
30935;BME280;51033;42.648;23.292;2022-09-20T07:09:29;94012.41;;;11.40;46.82
30935;BME280;51033;42.648;23.292;2022-09-20T07:11:55;94007.53;;;11.16;46.61
30935;BME280;51033;42.648;23.292;2022-09-20T07:14:24;94037.66;;;11.43;46.25
30935;BME280;51033;42.648;23.292;2022-09-20T07:16:51;94042.47;;;11.49;45.05
30935;BME280;51033;42.648;23.292;2022-09-20T07:19:16;94001.91;;;11.18;45.20
30935;BME280;51033;42.648;23.292;2022-09-20T07:21:42;94045.13;;;11.24;45.82
30935;BME280;51033;42.648;23.292;2022-09-20T07:24:07;94007.19;;;10.92;46.11
30935;BME280;51033;42.648;23.292;2022-09-20T07:26:33;94040.75;;;11.28;45.67
30935;BME280;51033;42.648;23.292;2022-09-20T07:28:59;94010.19;;;11.16;45.15
30935;BME280;51033;42.648;23.292;2022-09-20T07:31:26;94024.09;;;10.96;45.59
30935;BME280;51033;42.648;23.292;2022-09-20T07:33:51;93995.41;;;10.76;46.06
30935;BME280;51033;42.648;23.292;2022-09-20T07:36:17;94030.41;;;11.17;46.89
30935;BME280;51033;42.648;23.292;2022-09-20T07:38:52;94010.03;;;11.04;46.83
30935;BME280;51033;42.648;23.292;2022-09-20T07:41:18;94006.44;;;11.17;45.61
30935;BME280;51033;42.648;23.292;2022-09-20T07:43:44;94043.94;;;11.55;46.29
30935;BME280;51033;42.648;23.292;2022-09-20T07:46:10;93981.53;;;11.31;45.85
30935;BME280;51033;42.648;23.292;2022-09-20T07:48:39;94029.19;;;11.75;45.59
30935;BME280;51033;42.648;23.292;2022-09-20T07:51:08;94040.00;;;11.96;45.86
30935;BME280;51033;42.648;23.292;2022-09-20T07:53:34;94035.16;;;11.55;45.46
30935;BME280;51033;42.648;23.292;2022-09-20T07:56:09;93977.31;;;11.21;45.67
30935;BME280;51033;42.648;23.292;2022-09-20T07:58:35;94027.81;;;11.60;45.56
30935;BME280;51033;42.648;23.292;2022-09-20T08:01:04;94014.91;;;11.45;45.10
30935;BME280;51033;42.648;23.292;2022-09-20T08:03:31;94027.50;;;11.53;45.60
30935;BME280;51033;42.648;23.292;2022-09-20T08:06:05;93978.28;;;11.51;45.70
30935;BME280;51033;42.648;23.292;2022-09-20T08:08:37;94024.50;;;11.89;45.31
30935;BME280;51033;42.648;23.292;2022-09-20T08:11:05;93974.34;;;11.40;45.53
30935;BME280;51033;42.648;23.292;2022-09-20T08:13:38;94018.88;;;11.82;45.12
30935;BME280;51033;42.648;23.292;2022-09-20T08:16:06;94022.91;;;12.06;45.68
30935;BME280;51033;42.648;23.292;2022-09-20T08:18:33;94029.94;;;12.10;45.65
30935;BME280;51033;42.648;23.292;2022-09-20T08:21:03;94001.28;;;11.90;44.39
30935;BME280;51033;42.648;23.292;2022-09-20T08:23:32;94003.66;;;11.74;44.73
30935;BME280;51033;42.648;23.292;2022-09-20T08:25:58;94025.56;;;11.88;45.25
30935;BME280;51033;42.648;23.292;2022-09-20T08:28:23;94019.78;;;11.86;44.72
30935;BME280;51033;42.648;23.292;2022-09-20T08:30:49;94013.50;;;11.99;44.34
30935;BME280;51033;42.648;23.292;2022-09-20T08:33:14;94032.97;;;11.91;45.12
30935;BME280;51033;42.648;23.292;2022-09-20T08:35:39;94013.03;;;11.89;44.95
30935;BME280;51033;42.648;23.292;2022-09-20T08:38:05;93988.09;;;11.93;44.93
30935;BME280;51033;42.648;23.292;2022-09-20T08:40:32;94004.84;;;12.20;45.17
30935;BME280;51033;42.648;23.292;2022-09-20T08:42:57;93987.75;;;12.21;44.89
30935;BME280;51033;42.648;23.292;2022-09-20T08:45:24;94017.94;;;12.42;43.68
30935;BME280;51033;42.648;23.292;2022-09-20T08:47:54;94012.72;;;12.54;43.98
30935;BME280;51033;42.648;23.292;2022-09-20T08:50:21;93979.78;;;12.50;43.94
30935;BME280;51033;42.648;23.292;2022-09-20T08:52:49;93982.72;;;12.66;43.29
30935;BME280;51033;42.648;23.292;2022-09-20T08:55:21;93951.63;;;12.32;42.63
30935;BME280;51033;42.648;23.292;2022-09-20T08:57:49;94008.28;;;12.75;42.59
30935;BME280;51033;42.648;23.292;2022-09-20T09:00:19;94012.88;;;12.96;42.47
30935;BME280;51033;42.648;23.292;2022-09-20T09:02:45;93974.56;;;12.62;42.19
30935;BME280;51033;42.648;23.292;2022-09-20T09:05:43;93998.88;;;12.99;42.52
30935;BME280;51033;42.648;23.292;2022-09-20T09:08:17;94003.53;;;12.81;42.20
30935;BME280;51033;42.648;23.292;2022-09-20T09:10:52;93953.69;;;12.64;42.72
30935;BME280;51033;42.648;23.292;2022-09-20T09:13:32;93989.66;;;12.87;42.37
30935;BME280;51033;42.648;23.292;2022-09-20T09:16:05;93977.59;;;12.90;41.90
30935;BME280;51033;42.648;23.292;2022-09-20T09:18:34;93949.19;;;12.85;41.35
30935;BME280;51033;42.648;23.292;2022-09-20T09:21:02;93977.44;;;12.86;42.00
30935;BME280;51033;42.648;23.292;2022-09-20T09:23:45;93986.09;;;12.83;42.81
30935;BME280;51033;42.648;23.292;2022-09-20T09:26:21;93970.03;;;12.54;41.26
30935;BME280;51033;42.648;23.292;2022-09-20T09:29:14;93978.69;;;12.89;41.44
30935;BME280;51033;42.648;23.292;2022-09-20T09:31:40;93957.78;;;12.62;40.81
30935;BME280;51033;42.648;23.292;2022-09-20T09:36:51;93906.00;;;12.54;40.89
30935;BME280;51033;42.648;23.292;2022-09-20T09:41:49;93930.78;;;12.63;41.61
30935;BME280;51033;42.648;23.292;2022-09-20T09:44:24;93921.56;;;12.61;41.39
30935;BME280;51033;42.648;23.292;2022-09-20T09:46:52;93955.09;;;12.91;41.77
30935;BME280;51033;42.648;23.292;2022-09-20T09:52:14;93956.81;;;12.96;40.19
30935;BME280;51033;42.648;23.292;2022-09-20T09:54:54;93963.25;;;12.95;41.67
30935;BME280;51033;42.648;23.292;2022-09-20T10:00:12;93952.22;;;13.05;40.55
30935;BME280;51033;42.648;23.292;2022-09-20T10:14:04;93954.97;;;13.50;39.42
30935;BME280;51033;42.648;23.292;2022-09-20T10:17:27;93923.19;;;13.36;38.53
30935;BME280;51033;42.648;23.292;2022-09-20T10:22:53;93954.03;;;13.13;40.20
30935;BME280;51033;42.648;23.292;2022-09-20T10:33:46;93956.81;;;13.37;39.81
30935;BME280;51033;42.648;23.292;2022-09-20T10:36:51;93878.47;;;12.92;39.83
30935;BME280;51033;42.648;23.292;2022-09-20T10:39:36;93939.44;;;13.31;38.97
30935;BME280;51033;42.648;23.292;2022-09-20T10:45:18;93952.06;;;13.22;39.65
30935;BME280;51033;42.648;23.292;2022-09-20T10:55:51;93949.66;;;13.29;38.76
30935;BME280;51033;42.648;23.292;2022-09-20T11:09:16;93936.91;;;13.35;39.28
30935;BME280;51033;42.648;23.292;2022-09-20T11:14:40;93932.00;;;13.16;38.46
30935;BME280;51033;42.648;23.292;2022-09-20T11:17:24;93931.38;;;13.19;37.83
30935;BME280;51033;42.648;23.292;2022-09-20T11:20:27;93931.44;;;13.10;37.97
30935;BME280;51033;42.648;23.292;2022-09-20T11:23:07;93910.91;;;13.23;38.39
30935;BME280;51033;42.648;23.292;2022-09-20T11:25:38;93925.38;;;13.22;37.74
30935;BME280;51033;42.648;23.292;2022-09-20T11:28:14;93887.97;;;13.01;37.98
30935;BME280;51033;42.648;23.292;2022-09-20T11:36:01;93900.63;;;13.33;38.84
30935;BME280;51033;42.648;23.292;2022-09-20T11:38:35;93900.25;;;13.35;38.73
30935;BME280;51033;42.648;23.292;2022-09-20T11:41:10;93896.00;;;13.55;38.77
30935;BME280;51033;42.648;23.292;2022-09-20T11:43:39;93917.78;;;13.65;38.17
30935;BME280;51033;42.648;23.292;2022-09-20T11:46:10;93912.00;;;13.63;38.23
30935;BME280;51033;42.648;23.292;2022-09-20T11:48:42;93905.53;;;13.64;38.43
30935;BME280;51033;42.648;23.292;2022-09-20T11:51:53;93861.53;;;13.29;38.26
30935;BME280;51033;42.648;23.292;2022-09-20T11:54:18;93903.69;;;13.56;38.17
30935;BME280;51033;42.648;23.292;2022-09-20T11:56:50;93873.19;;;13.57;37.83
30935;BME280;51033;42.648;23.292;2022-09-20T12:02:04;93865.28;;;13.49;37.55
30935;BME280;51033;42.648;23.292;2022-09-20T12:04:37;93878.78;;;13.64;37.41
30935;BME280;51033;42.648;23.292;2022-09-20T12:07:17;93852.66;;;13.37;37.41
30935;BME280;51033;42.648;23.292;2022-09-20T12:09:45;93901.53;;;13.70;37.04
30935;BME280;51033;42.648;23.292;2022-09-20T12:12:31;93894.56;;;13.57;37.19
30935;BME280;51033;42.648;23.292;2022-09-20T12:15:02;93876.47;;;13.42;36.56
30935;BME280;51033;42.648;23.292;2022-09-20T12:28:51;93877.16;;;13.84;36.20
30935;BME280;51033;42.648;23.292;2022-09-20T12:36:41;93869.75;;;14.02;34.77
30935;BME280;51033;42.648;23.292;2022-09-20T12:42:00;93872.88;;;14.16;34.66
30935;BME280;51033;42.648;23.292;2022-09-20T12:47:49;93874.66;;;14.00;34.82
30935;BME280;51033;42.648;23.292;2022-09-20T12:52:46;93881.31;;;13.94;35.72
30935;BME280;51033;42.648;23.292;2022-09-20T13:03:28;93867.31;;;14.33;34.86
30935;BME280;51033;42.648;23.292;2022-09-20T13:14:00;93831.75;;;13.96;34.16
30935;BME280;51033;42.648;23.292;2022-09-20T13:21:37;93833.09;;;14.14;35.12
30935;BME280;51033;42.648;23.292;2022-09-20T13:24:05;93858.72;;;14.40;35.66
30935;BME280;51033;42.648;23.292;2022-09-20T13:26:34;93875.34;;;14.45;34.37
30935;BME280;51033;42.648;23.292;2022-09-20T13:29:06;93856.84;;;14.40;35.00
30935;BME280;51033;42.648;23.292;2022-09-20T13:31:34;93795.53;;;14.11;34.32
30935;BME280;51033;42.648;23.292;2022-09-20T13:34:19;93872.66;;;14.57;33.75
30935;BME280;51033;42.648;23.292;2022-09-20T13:36:46;93872.91;;;14.65;34.00
30935;BME280;51033;42.648;23.292;2022-09-20T13:39:33;93834.31;;;14.41;33.04
30935;BME280;51033;42.648;23.292;2022-09-20T13:42:04;93861.09;;;14.66;33.17
30935;BME280;51033;42.648;23.292;2022-09-20T13:44:32;93865.44;;;14.70;32.10
30935;BME280;51033;42.648;23.292;2022-09-20T13:46:59;93859.69;;;14.84;32.72
30935;BME280;51033;42.648;23.292;2022-09-20T13:49:30;93855.03;;;14.81;32.21
30935;BME280;51033;42.648;23.292;2022-09-20T13:51:55;93818.50;;;14.60;32.52
30935;BME280;51033;42.648;23.292;2022-09-20T13:54:28;93865.94;;;14.88;33.46
30935;BME280;51033;42.648;23.292;2022-09-20T13:57:04;93851.03;;;14.75;32.35
30935;BME280;51033;42.648;23.292;2022-09-20T13:59:42;93814.59;;;14.46;32.96
30935;BME280;51033;42.648;23.292;2022-09-20T14:02:30;93853.06;;;14.53;32.88
30935;BME280;51033;42.648;23.292;2022-09-20T14:04:58;93861.63;;;14.71;33.54
30935;BME280;51033;42.648;23.292;2022-09-20T14:07:26;93865.28;;;14.91;33.69
30935;BME280;51033;42.648;23.292;2022-09-20T14:09:52;93840.03;;;14.92;33.61
30935;BME280;51033;42.648;23.292;2022-09-20T14:12:20;93850.28;;;15.02;33.21
30935;BME280;51033;42.648;23.292;2022-09-20T14:14:48;93848.13;;;15.08;33.23
30935;BME280;51033;42.648;23.292;2022-09-20T14:17:17;93822.19;;;14.96;33.37
30935;BME280;51033;42.648;23.292;2022-09-20T14:19:46;93823.50;;;15.02;32.47
30935;BME280;51033;42.648;23.292;2022-09-20T14:22:21;93864.91;;;15.32;33.11
30935;BME280;51033;42.648;23.292;2022-09-20T14:25:18;93844.56;;;15.43;32.99
30935;BME280;51033;42.648;23.292;2022-09-20T14:27:44;93855.06;;;15.36;33.62
30935;BME280;51033;42.648;23.292;2022-09-20T14:30:29;93869.41;;;15.28;33.52
30935;BME280;51033;42.648;23.292;2022-09-20T14:32:56;93840.66;;;15.13;34.12
30935;BME280;51033;42.648;23.292;2022-09-20T14:35:22;93846.00;;;15.13;33.91
30935;BME280;51033;42.648;23.292;2022-09-20T14:37:55;93860.91;;;15.26;34.60
30935;BME280;51033;42.648;23.292;2022-09-20T14:40:31;93857.81;;;15.24;34.39
30935;BME280;51033;42.648;23.292;2022-09-20T14:43:02;93846.41;;;15.27;34.47
30935;BME280;51033;42.648;23.292;2022-09-20T14:45:33;93865.59;;;15.29;33.05
30935;BME280;51033;42.648;23.292;2022-09-20T14:48:02;93873.56;;;15.41;33.55
30935;BME280;51033;42.648;23.292;2022-09-20T14:50:34;93877.94;;;15.46;33.24
30935;BME280;51033;42.648;23.292;2022-09-20T14:55:36;93853.81;;;15.18;34.43
30935;BME280;51033;42.648;23.292;2022-09-20T14:58:13;93879.88;;;15.06;34.15
30935;BME280;51033;42.648;23.292;2022-09-20T15:03:14;93861.50;;;14.68;34.27
30935;BME280;51033;42.648;23.292;2022-09-20T15:05:48;93863.53;;;14.58;34.52
30935;BME280;51033;42.648;23.292;2022-09-20T15:08:15;93867.09;;;14.50;35.67
30935;BME280;51033;42.648;23.292;2022-09-20T15:10:42;93874.78;;;14.52;36.25
30935;BME280;51033;42.648;23.292;2022-09-20T15:13:09;93830.88;;;13.92;36.62
30935;BME280;51033;42.648;23.292;2022-09-20T15:15:35;93866.19;;;14.10;36.44
30935;BME280;51033;42.648;23.292;2022-09-20T15:18:01;93842.44;;;13.96;36.71
30935;BME280;51033;42.648;23.292;2022-09-20T15:20:27;93842.13;;;13.98;36.16
30935;BME280;51033;42.648;23.292;2022-09-20T15:22:52;93866.75;;;14.15;36.94
30935;BME280;51033;42.648;23.292;2022-09-20T15:25:19;93808.00;;;13.70;37.29
30935;BME280;51033;42.648;23.292;2022-09-20T15:27:46;93868.88;;;14.10;37.47
30935;BME280;51033;42.648;23.292;2022-09-20T15:30:16;93812.91;;;13.68;37.75
30935;BME280;51033;42.648;23.292;2022-09-20T15:32:45;93851.00;;;13.90;37.37
30935;BME280;51033;42.648;23.292;2022-09-20T15:35:11;93881.25;;;14.02;37.32
30935;BME280;51033;42.648;23.292;2022-09-20T15:37:39;93854.38;;;14.11;37.74
30935;BME280;51033;42.648;23.292;2022-09-20T15:40:05;93882.56;;;14.33;37.58
30935;BME280;51033;42.648;23.292;2022-09-20T15:42:32;93866.66;;;14.36;37.83
30935;BME280;51033;42.648;23.292;2022-09-20T15:45:04;93865.19;;;14.27;37.86
30935;BME280;51033;42.648;23.292;2022-09-20T15:47:30;93856.16;;;14.19;38.21
30935;BME280;51033;42.648;23.292;2022-09-20T15:49:55;93859.72;;;14.23;38.64
30935;BME280;51033;42.648;23.292;2022-09-20T15:52:24;93875.56;;;14.28;39.29
30935;BME280;51033;42.648;23.292;2022-09-20T15:54:50;93859.84;;;14.14;39.22
30935;BME280;51033;42.648;23.292;2022-09-20T15:57:16;93864.41;;;14.02;38.85
30935;BME280;51033;42.648;23.292;2022-09-20T15:59:41;93890.94;;;14.19;39.06
30935;BME280;51033;42.648;23.292;2022-09-20T16:02:08;93892.94;;;13.98;39.20
30935;BME280;51033;42.648;23.292;2022-09-20T16:04:33;93875.84;;;13.78;39.38
30935;BME280;51033;42.648;23.292;2022-09-20T16:07:00;93878.63;;;13.82;39.31
30935;BME280;51033;42.648;23.292;2022-09-20T16:09:29;93898.13;;;13.94;39.26
30935;BME280;51033;42.648;23.292;2022-09-20T16:11:55;93868.06;;;13.85;40.10
30935;BME280;51033;42.648;23.292;2022-09-20T16:14:23;93875.09;;;14.02;39.67
30935;BME280;51033;42.648;23.292;2022-09-20T16:16:49;93903.41;;;14.15;39.89
30935;BME280;51033;42.648;23.292;2022-09-20T16:19:14;93911.47;;;14.27;39.74
30935;BME280;51033;42.648;23.292;2022-09-20T16:21:49;93901.66;;;14.31;39.62
30935;BME280;51033;42.648;23.292;2022-09-20T16:24:18;93887.25;;;14.11;39.23
30935;BME280;51033;42.648;23.292;2022-09-20T16:26:44;93889.59;;;14.25;38.78
30935;BME280;51033;42.648;23.292;2022-09-20T16:29:11;93909.91;;;14.26;38.79
30935;BME280;51033;42.648;23.292;2022-09-20T16:31:44;93874.09;;;14.06;38.73
30935;BME280;51033;42.648;23.292;2022-09-20T16:36:50;93914.13;;;14.15;38.75
30935;BME280;51033;42.648;23.292;2022-09-20T16:39:18;93883.09;;;13.78;38.43
30935;BME280;51033;42.648;23.292;2022-09-20T16:41:46;93908.66;;;13.66;38.60
30935;BME280;51033;42.648;23.292;2022-09-20T16:44:12;93903.00;;;13.80;38.75
30935;BME280;51033;42.648;23.292;2022-09-20T16:46:38;93873.19;;;13.57;38.60
30935;BME280;51033;42.648;23.292;2022-09-20T16:49:05;93911.00;;;13.68;38.33
30935;BME280;51033;42.648;23.292;2022-09-20T16:51:36;93913.59;;;13.77;38.93
30935;BME280;51033;42.648;23.292;2022-09-20T16:54:03;93906.78;;;13.67;39.32
30935;BME280;51033;42.648;23.292;2022-09-20T16:56:33;93905.78;;;13.71;38.73
30935;BME280;51033;42.648;23.292;2022-09-20T16:59:02;93924.06;;;13.82;38.62
30935;BME280;51033;42.648;23.292;2022-09-20T17:01:29;93892.19;;;13.44;38.88
30935;BME280;51033;42.648;23.292;2022-09-20T17:03:55;93930.09;;;13.79;38.82
30935;BME280;51033;42.648;23.292;2022-09-20T17:06:21;93893.69;;;13.32;38.75
30935;BME280;51033;42.648;23.292;2022-09-20T17:08:50;93930.63;;;13.51;39.07
30935;BME280;51033;42.648;23.292;2022-09-20T17:11:18;93936.16;;;13.46;39.14
30935;BME280;51033;42.648;23.292;2022-09-20T17:13:46;93906.84;;;13.38;39.08
30935;BME280;51033;42.648;23.292;2022-09-20T17:16:18;93929.78;;;13.59;39.18
30935;BME280;51033;42.648;23.292;2022-09-20T17:18:44;93874.88;;;13.29;38.98
30935;BME280;51033;42.648;23.292;2022-09-20T17:23:44;93923.69;;;13.59;39.15
30935;BME280;51033;42.648;23.292;2022-09-20T17:26:19;93911.53;;;13.61;39.13
30935;BME280;51033;42.648;23.292;2022-09-20T17:28:47;93930.53;;;13.81;39.34
30935;BME280;51033;42.648;23.292;2022-09-20T17:31:19;93935.13;;;13.59;39.41
30935;BME280;51033;42.648;23.292;2022-09-20T17:33:48;93937.16;;;13.62;39.48
30935;BME280;51033;42.648;23.292;2022-09-20T17:36:17;93931.34;;;13.60;39.62
30935;BME280;51033;42.648;23.292;2022-09-20T17:38:44;93930.19;;;13.49;39.90
30935;BME280;51033;42.648;23.292;2022-09-20T17:41:12;93923.28;;;13.48;39.68
30935;BME280;51033;42.648;23.292;2022-09-20T17:43:39;93932.38;;;13.47;40.41
30935;BME280;51033;42.648;23.292;2022-09-20T17:46:11;93932.91;;;13.61;40.19
30935;BME280;51033;42.648;23.292;2022-09-20T17:48:37;93935.75;;;13.56;40.13
30935;BME280;51033;42.648;23.292;2022-09-20T17:51:03;93936.38;;;13.62;40.13
30935;BME280;51033;42.648;23.292;2022-09-20T17:53:31;93924.28;;;13.56;40.26
30935;BME280;51033;42.648;23.292;2022-09-20T17:55:57;93938.94;;;13.70;40.13
30935;BME280;51033;42.648;23.292;2022-09-20T17:58:23;93943.47;;;13.79;40.71
30935;BME280;51033;42.648;23.292;2022-09-20T18:00:50;93940.31;;;13.77;40.18
30935;BME280;51033;42.648;23.292;2022-09-20T18:03:16;93953.81;;;13.80;40.23
30935;BME280;51033;42.648;23.292;2022-09-20T18:05:42;93941.09;;;13.56;39.98
30935;BME280;51033;42.648;23.292;2022-09-20T18:08:07;93942.66;;;13.57;40.11
30935;BME280;51033;42.648;23.292;2022-09-20T18:10:33;93931.91;;;13.45;39.80